createdAt,value
2022-11-08T00:00:02.532Z,91.76
2022-11-08T00:01:02.433Z,91.76
2022-11-08T00:02:02.535Z,91.76
2022-11-08T00:03:02.351Z,91.76
2022-11-08T00:04:02.253Z,91.76
2022-11-08T00:05:02.166Z,91.76
2022-11-08T00:06:02.106Z,91.76
2022-11-08T00:07:02.051Z,91.76
2022-11-08T00:08:02.015Z,91.66
2022-11-08T00:09:01.991Z,91.66
2022-11-08T00:10:01.931Z,91.66
2022-11-08T00:11:01.852Z,91.76
2022-11-08T00:12:01.794Z,91.56
2022-11-08T00:13:01.680Z,91.56
2022-11-08T00:14:02.368Z,91.66
2022-11-08T00:15:01.548Z,91.66
2022-11-08T00:16:01.505Z,91.66
2022-11-08T00:17:01.428Z,91.66
2022-11-08T00:18:01.342Z,91.56
2022-11-08T00:19:01.314Z,91.66
2022-11-08T00:20:01.229Z,91.66
2022-11-08T00:21:01.179Z,91.66
2022-11-08T00:22:01.130Z,91.66
2022-11-08T00:23:01.028Z,91.56
2022-11-08T00:24:00.992Z,91.52
2022-11-08T00:25:00.901Z,91.52
2022-11-08T00:26:02.180Z,91.20
2022-11-08T00:27:00.833Z,91.20
2022-11-08T00:29:40.206Z,91.20
2022-11-08T00:30:41.154Z,91.00
2022-11-08T00:31:41.082Z,90.90
2022-11-08T00:32:40.995Z,90.90
2022-11-08T00:33:40.952Z,90.80
2022-11-08T00:34:40.852Z,90.80
2022-11-08T00:35:40.771Z,90.90
2022-11-08T00:36:40.702Z,90.70
2022-11-08T00:37:40.690Z,90.70
2022-11-08T00:38:40.613Z,90.45
2022-11-08T00:39:40.570Z,90.55
2022-11-08T00:40:40.503Z,90.45
2022-11-08T00:41:40.442Z,90.35
2022-11-08T00:42:40.352Z,90.55
2022-11-08T00:43:40.311Z,90.35
2022-11-08T00:44:40.243Z,90.35
2022-11-08T00:45:40.165Z,90.14
2022-11-08T00:46:40.124Z,90.25
2022-11-08T00:47:40.032Z,90.35
2022-11-08T00:48:39.993Z,90.25
2022-11-08T00:49:39.933Z,90.25
2022-11-08T00:50:39.854Z,90.25
2022-11-08T00:51:39.799Z,90.14
2022-11-08T00:52:39.769Z,90.35
2022-11-08T00:53:39.685Z,90.25
2022-11-08T00:54:39.594Z,90.25
2022-11-08T00:55:39.527Z,90.25
2022-11-08T00:56:39.479Z,90.14
2022-11-08T00:57:58.402Z,90.25
2022-11-08T00:58:39.378Z,90.35
2022-11-08T00:59:39.283Z,90.25
2022-11-08T01:00:39.230Z,90.35
2022-11-08T01:01:39.546Z,90.35
2022-11-08T01:02:39.155Z,90.25
2022-11-08T01:03:39.047Z,90.14
2022-11-08T01:04:59.940Z,90.25
2022-11-08T01:05:38.909Z,90.25
2022-11-08T01:06:38.837Z,90.14
2022-11-08T01:07:38.788Z,90.14
2022-11-08T01:08:38.713Z,90.14
2022-11-08T01:09:38.642Z,90.14
2022-11-08T01:12:47.272Z,90.14
2022-11-08T01:13:48.195Z,90.14
2022-11-08T01:14:48.102Z,90.25
2022-11-08T01:15:48.063Z,90.25
2022-11-08T01:16:47.956Z,90.25
2022-11-08T01:17:47.903Z,90.14
2022-11-08T01:18:47.827Z,90.04
2022-11-08T01:19:47.770Z,90.14
2022-11-08T01:20:47.701Z,90.35
2022-11-08T01:21:47.652Z,90.25
2022-11-08T01:22:47.646Z,90.25
2022-11-08T01:23:47.567Z,90.25
2022-11-08T01:24:47.511Z,90.35
2022-11-08T01:25:47.425Z,90.35
2022-11-08T01:26:47.363Z,90.35
2022-11-08T01:27:47.304Z,90.49
2022-11-08T01:28:47.264Z,90.59
2022-11-08T01:29:47.203Z,90.70
2022-11-08T01:30:47.132Z,90.59
2022-11-08T01:31:47.070Z,90.80
2022-11-08T01:32:46.986Z,90.80
2022-11-08T01:33:50.994Z,91.00
2022-11-08T01:34:46.883Z,91.11
2022-11-08T01:35:46.821Z,91.11
2022-11-08T01:36:46.734Z,91.11
2022-11-08T01:37:46.685Z,91.11
2022-11-08T01:38:46.629Z,91.25
2022-11-08T01:39:46.546Z,91.35
2022-11-08T01:40:46.521Z,91.35
2022-11-08T01:41:46.429Z,91.46
2022-11-08T01:42:46.346Z,91.66
2022-11-08T01:43:46.309Z,91.56
2022-11-08T01:44:46.223Z,91.56
2022-11-08T01:45:46.183Z,91.76
2022-11-08T01:46:46.108Z,91.66
2022-11-08T01:47:46.014Z,91.86
2022-11-08T01:48:45.990Z,91.86
2022-11-08T01:49:45.904Z,92.07
2022-11-08T01:50:45.858Z,91.96
2022-11-08T01:51:45.789Z,92.07
2022-11-08T01:52:45.749Z,91.96
2022-11-08T01:53:45.653Z,91.96
2022-11-08T01:54:45.609Z,92.01
2022-11-08T01:55:45.542Z,91.91
2022-11-08T01:56:45.478Z,92.21
2022-11-08T01:57:45.401Z,92.21
2022-11-08T02:00:24.293Z,92.21
2022-11-08T02:01:25.304Z,92.52
2022-11-08T02:02:25.273Z,92.72
2022-11-08T02:03:25.110Z,92.62
2022-11-08T02:04:25.051Z,92.72
2022-11-08T02:05:25.213Z,92.83
2022-11-08T02:06:24.923Z,92.87
2022-11-08T02:07:24.864Z,92.97
2022-11-08T02:08:24.803Z,92.87
2022-11-08T02:09:24.717Z,92.87
2022-11-08T02:10:24.657Z,92.87
2022-11-08T02:11:24.606Z,92.87
2022-11-08T02:12:24.542Z,92.87
2022-11-08T02:13:24.472Z,93.07
2022-11-08T02:14:24.395Z,92.87
2022-11-08T02:15:24.356Z,92.77
2022-11-08T02:17:33.497Z,93.18
2022-11-08T02:18:34.427Z,93.28
2022-11-08T02:19:34.373Z,93.28
2022-11-08T02:20:34.326Z,93.43
2022-11-08T02:21:34.255Z,93.52
2022-11-08T02:22:34.187Z,93.63
2022-11-08T02:23:34.057Z,93.73
2022-11-08T02:24:34.002Z,93.63
2022-11-08T02:25:33.943Z,93.84
2022-11-08T02:26:33.848Z,94.14
2022-11-08T02:27:33.804Z,94.14
2022-11-08T02:28:33.757Z,94.04
2022-11-08T02:29:33.694Z,94.04
2022-11-08T02:30:33.614Z,94.34
2022-11-08T02:31:34.439Z,94.24
2022-11-08T02:32:33.495Z,94.14
2022-11-08T02:33:33.427Z,94.14
2022-11-08T02:34:33.365Z,94.14
2022-11-08T02:35:33.294Z,94.14
2022-11-08T02:36:33.245Z,94.04
2022-11-08T02:37:33.186Z,94.24
2022-11-08T02:38:33.123Z,94.34
2022-11-08T02:39:33.058Z,94.14
2022-11-08T02:40:53.971Z,94.14
2022-11-08T02:41:32.920Z,94.04
2022-11-08T02:42:32.845Z,94.04
2022-11-08T02:43:32.791Z,94.14
2022-11-08T02:44:32.719Z,93.93
2022-11-08T02:45:32.704Z,94.04
2022-11-08T02:46:32.664Z,93.93
2022-11-08T02:47:32.587Z,94.04
2022-11-08T02:48:32.551Z,93.93
2022-11-08T02:49:32.441Z,94.24
2022-11-08T02:50:32.374Z,94.14
2022-11-08T02:51:32.276Z,94.14
2022-11-08T02:52:53.193Z,94.14
2022-11-08T02:53:32.159Z,94.14
2022-11-08T02:54:32.098Z,94.24
2022-11-08T02:55:32.039Z,94.14
2022-11-08T02:56:31.969Z,93.93
2022-11-08T02:57:31.909Z,93.84
2022-11-08T02:58:31.912Z,93.84
2022-11-08T02:59:31.837Z,94.08
2022-11-08T03:00:31.755Z,94.29
2022-11-08T03:01:31.774Z,94.39
2022-11-08T03:02:31.665Z,94.29
2022-11-08T03:03:31.501Z,94.29
2022-11-08T03:04:31.479Z,94.39
2022-11-08T03:05:31.396Z,94.39
2022-11-08T03:06:31.312Z,94.49
2022-11-08T03:07:31.252Z,94.49
2022-11-08T03:08:31.245Z,94.80
2022-11-08T03:09:31.130Z,94.80
2022-11-08T03:10:31.072Z,94.80
2022-11-08T03:11:31.001Z,95.00
2022-11-08T03:12:30.955Z,94.90
2022-11-08T03:13:30.886Z,95.00
2022-11-08T03:14:30.820Z,94.90
2022-11-08T03:15:30.757Z,95.00
2022-11-08T03:16:30.706Z,95.00
2022-11-08T03:17:30.686Z,94.90
2022-11-08T03:18:30.634Z,94.90
2022-11-08T03:19:30.558Z,94.80
2022-11-08T03:20:33.096Z,94.59
2022-11-08T03:21:30.417Z,94.45
2022-11-08T03:22:30.380Z,94.34
2022-11-08T03:23:30.282Z,94.24
2022-11-08T03:24:30.227Z,94.14
2022-11-08T03:25:30.184Z,93.93
2022-11-08T03:26:30.106Z,93.93
2022-11-08T03:27:30.051Z,93.84
2022-11-08T03:30:08.910Z,93.28
2022-11-08T03:31:09.820Z,93.38
2022-11-08T03:32:09.768Z,93.18
2022-11-08T03:33:09.739Z,93.18
2022-11-08T03:34:09.663Z,92.97
2022-11-08T03:35:09.590Z,92.97
2022-11-08T03:36:09.546Z,92.77
2022-11-08T03:37:09.458Z,92.77
2022-11-08T03:38:09.405Z,92.77
2022-11-08T03:39:09.337Z,92.56
2022-11-08T03:40:09.294Z,92.56
2022-11-08T03:41:09.224Z,92.56
2022-11-08T03:42:09.154Z,92.46
2022-11-08T03:43:09.077Z,92.25
2022-11-08T03:44:09.035Z,92.15
2022-11-08T03:45:08.972Z,92.05
2022-11-08T03:47:47.886Z,91.70
2022-11-08T03:48:48.812Z,91.91
2022-11-08T03:49:48.762Z,91.70
2022-11-08T03:50:48.677Z,91.80
2022-11-08T03:51:48.642Z,91.60
2022-11-08T03:52:48.546Z,91.70
2022-11-08T03:53:48.491Z,91.70
2022-11-08T03:54:48.431Z,91.50
2022-11-08T03:55:48.344Z,91.39
2022-11-08T03:56:48.289Z,91.50
2022-11-08T03:57:48.256Z,91.50
2022-11-08T03:58:48.172Z,91.39
2022-11-08T03:59:48.112Z,91.29
2022-11-08T04:00:48.040Z,91.09
2022-11-08T04:01:48.160Z,91.19
2022-11-08T04:02:47.942Z,91.29
2022-11-08T04:06:06.278Z,90.99
2022-11-08T04:07:07.240Z,90.68
2022-11-08T04:08:07.149Z,90.47
2022-11-08T04:09:07.108Z,90.68
2022-11-08T04:10:07.046Z,90.68
2022-11-08T04:11:06.974Z,90.88
2022-11-08T04:12:06.915Z,90.88
2022-11-08T04:13:06.856Z,90.88
2022-11-08T04:14:06.786Z,91.19
2022-11-08T04:15:06.722Z,90.88
2022-11-08T04:16:06.700Z,90.68
2022-11-08T04:17:06.865Z,90.58
2022-11-08T04:18:06.461Z,90.88
2022-11-08T04:19:06.413Z,90.99
2022-11-08T04:20:06.356Z,90.88
2022-11-08T04:21:06.301Z,90.78
2022-11-08T04:22:06.225Z,90.88
2022-11-08T04:23:06.158Z,90.68
2022-11-08T04:24:06.091Z,90.68
2022-11-08T04:25:06.024Z,90.78
2022-11-08T04:26:05.954Z,90.78
2022-11-08T04:27:05.953Z,90.78
2022-11-08T04:28:05.893Z,90.78
2022-11-08T04:29:05.827Z,90.99
2022-11-08T04:30:05.764Z,90.99
2022-11-08T04:31:05.690Z,90.92
2022-11-08T04:32:05.626Z,91.13
2022-11-08T04:33:05.535Z,91.13
2022-11-08T04:34:05.518Z,91.33
2022-11-08T04:35:05.475Z,91.33
2022-11-08T04:36:05.385Z,91.54
2022-11-08T04:37:05.314Z,91.64
2022-11-08T04:38:05.246Z,91.64
2022-11-08T04:39:05.188Z,91.85
2022-11-08T04:40:05.095Z,91.95
2022-11-08T04:41:05.078Z,92.10
2022-11-08T04:42:04.975Z,92.10
2022-11-08T04:43:04.943Z,91.99
2022-11-08T04:44:04.857Z,91.99
2022-11-08T04:45:04.796Z,92.10
2022-11-08T04:46:04.747Z,92.10
2022-11-08T04:48:43.621Z,92.30
2022-11-08T04:49:44.549Z,92.50
2022-11-08T04:50:44.508Z,92.50
2022-11-08T04:51:44.448Z,92.65
2022-11-08T04:52:44.386Z,92.85
2022-11-08T04:53:44.301Z,92.96
2022-11-08T04:54:44.188Z,93.06
2022-11-08T04:55:44.194Z,93.16
2022-11-08T04:56:44.125Z,93.26
2022-11-08T04:57:44.039Z,93.26
2022-11-08T04:58:43.997Z,93.37
2022-11-08T04:59:43.928Z,93.16
2022-11-08T05:00:43.852Z,93.16
2022-11-08T05:01:43.898Z,93.06
2022-11-08T05:02:43.831Z,93.06
2022-11-08T05:03:43.692Z,93.26
2022-11-08T05:04:43.585Z,93.51
2022-11-08T05:05:43.574Z,93.41
2022-11-08T05:06:43.456Z,93.41
2022-11-08T05:07:43.396Z,93.51
2022-11-08T05:08:43.355Z,93.51
2022-11-08T05:09:43.281Z,93.62
2022-11-08T05:10:43.207Z,93.62
2022-11-08T05:11:43.185Z,93.71
2022-11-08T05:12:43.111Z,93.82
2022-11-08T05:13:43.033Z,93.71
2022-11-08T05:14:42.946Z,93.71
2022-11-08T05:15:42.905Z,93.82
2022-11-08T05:16:42.802Z,93.82
2022-11-08T05:18:03.734Z,93.82
2022-11-08T05:18:42.705Z,93.82
2022-11-08T05:19:42.625Z,93.66
2022-11-08T05:20:42.566Z,93.76
2022-11-08T05:21:42.535Z,93.86
2022-11-08T05:22:42.443Z,93.86
2022-11-08T05:23:42.403Z,93.86
2022-11-08T05:24:42.314Z,94.17
2022-11-08T05:25:42.258Z,94.27
2022-11-08T05:26:42.202Z,94.17
2022-11-08T05:27:42.127Z,94.48
2022-11-08T05:28:42.086Z,94.48
2022-11-08T05:29:42.423Z,94.48
2022-11-08T05:30:41.953Z,94.58
2022-11-08T05:31:41.873Z,94.68
2022-11-08T05:32:41.812Z,94.93
2022-11-08T05:33:41.750Z,94.93
2022-11-08T05:34:41.706Z,94.93
2022-11-08T05:36:05.825Z,95.34
2022-11-08T05:36:41.544Z,95.44
2022-11-08T05:37:41.487Z,95.44
2022-11-08T05:38:41.442Z,95.44
2022-11-08T05:39:41.365Z,95.44
2022-11-08T05:40:41.296Z,95.34
2022-11-08T05:41:41.275Z,95.54
2022-11-08T05:42:41.176Z,95.54
2022-11-08T05:43:41.102Z,95.44
2022-11-08T05:44:41.060Z,95.24
2022-11-08T05:45:40.973Z,95.54
2022-11-08T05:46:40.929Z,95.44
2022-11-08T05:47:40.800Z,95.54
2022-11-08T05:48:40.792Z,95.54
2022-11-08T05:49:40.743Z,95.65
2022-11-08T05:50:40.625Z,95.79
2022-11-08T05:51:40.557Z,95.59
2022-11-08T05:52:41.060Z,95.79
2022-11-08T05:53:40.774Z,95.90
2022-11-08T05:54:40.418Z,95.90
2022-11-08T05:55:40.366Z,95.69
2022-11-08T05:56:40.287Z,95.69
2022-11-08T05:57:40.176Z,95.90
2022-11-08T05:58:40.092Z,96.00
2022-11-08T05:59:40.090Z,96.00
2022-11-08T06:00:40.044Z,96.00
2022-11-08T06:01:40.023Z,96.20
2022-11-08T06:02:40.011Z,96.31
2022-11-08T06:03:39.849Z,96.31
2022-11-08T06:04:39.725Z,96.31
2022-11-08T06:05:39.675Z,96.31
2022-11-08T06:06:39.580Z,96.31
2022-11-08T06:07:39.511Z,96.31
2022-11-08T06:08:39.470Z,96.41
2022-11-08T06:09:39.404Z,96.41
2022-11-08T06:10:39.329Z,96.41
2022-11-08T06:12:09.108Z,96.51
2022-11-08T06:12:39.187Z,96.41
2022-11-08T06:13:39.142Z,96.35
2022-11-08T06:14:39.069Z,96.35
2022-11-08T06:15:39.008Z,96.45
2022-11-08T06:16:38.938Z,96.45
2022-11-08T06:17:38.916Z,96.35
2022-11-08T06:18:38.819Z,96.25
2022-11-08T06:19:38.779Z,96.15
2022-11-08T06:20:38.687Z,96.04
2022-11-08T06:21:38.643Z,96.15
2022-11-08T06:22:38.567Z,96.25
2022-11-08T06:23:38.546Z,96.35
2022-11-08T06:24:38.453Z,96.45
2022-11-08T06:25:38.365Z,96.45
2022-11-08T06:26:38.307Z,96.45
2022-11-08T06:27:38.262Z,96.35
2022-11-08T06:28:38.991Z,96.45
2022-11-08T06:29:59.095Z,96.45
2022-11-08T06:30:38.065Z,96.45
2022-11-08T06:31:42.659Z,96.45
2022-11-08T06:32:37.904Z,96.25
2022-11-08T06:33:37.890Z,96.35
2022-11-08T06:34:37.798Z,96.35
2022-11-08T06:35:37.749Z,96.35
2022-11-08T06:36:37.667Z,96.35
2022-11-08T06:37:37.620Z,96.15
2022-11-08T06:38:38.046Z,96.35
2022-11-08T06:39:37.476Z,96.45
2022-11-08T06:40:37.433Z,96.35
2022-11-08T06:41:37.384Z,96.15
2022-11-08T06:42:37.347Z,96.15
2022-11-08T06:43:37.222Z,96.25
2022-11-08T06:44:37.779Z,96.25
2022-11-08T06:45:37.192Z,96.15
2022-11-08T06:46:37.613Z,96.04
2022-11-08T06:47:37.091Z,96.04
2022-11-08T06:48:36.940Z,96.04
2022-11-08T06:49:36.865Z,96.04
2022-11-08T06:50:36.812Z,96.15
2022-11-08T06:51:36.742Z,96.15
2022-11-08T06:52:36.655Z,96.15
2022-11-08T06:53:36.609Z,96.25
2022-11-08T06:54:36.523Z,96.25
2022-11-08T06:55:36.439Z,96.25
2022-11-08T06:56:36.416Z,96.15
2022-11-08T06:57:36.348Z,96.04
2022-11-08T06:58:36.284Z,96.04
2022-11-08T06:59:36.242Z,96.04
2022-11-08T07:00:36.131Z,95.84
2022-11-08T07:01:36.128Z,95.90
2022-11-08T07:02:36.185Z,95.59
2022-11-08T07:03:35.922Z,95.59
2022-11-08T07:04:35.900Z,95.69
2022-11-08T07:05:56.831Z,95.49
2022-11-08T07:06:35.752Z,95.39
2022-11-08T07:07:35.700Z,95.39
2022-11-08T07:08:35.637Z,95.28
2022-11-08T07:09:35.588Z,95.49
2022-11-08T07:10:35.490Z,95.49
2022-11-08T07:11:35.450Z,95.39
2022-11-08T07:12:35.369Z,95.28
2022-11-08T07:13:35.309Z,95.39
2022-11-08T07:14:35.255Z,95.39
2022-11-08T07:15:35.156Z,95.49
2022-11-08T07:16:35.122Z,95.49
2022-11-08T07:17:38.671Z,95.49
2022-11-08T07:18:35.011Z,95.49
2022-11-08T07:19:35.558Z,95.49
2022-11-08T07:20:34.861Z,95.39
2022-11-08T07:21:34.803Z,95.18
2022-11-08T07:22:34.746Z,95.28
2022-11-08T07:23:55.803Z,95.18
2022-11-08T07:24:34.598Z,94.98
2022-11-08T07:25:34.537Z,94.67
2022-11-08T07:26:34.485Z,94.87
2022-11-08T07:27:34.422Z,94.77
2022-11-08T07:28:34.367Z,94.56
2022-11-08T07:29:34.303Z,94.56
2022-11-08T07:30:34.216Z,94.36
2022-11-08T07:31:34.157Z,94.15
2022-11-08T07:32:34.100Z,94.15
2022-11-08T07:33:34.043Z,94.46
2022-11-08T07:34:33.975Z,94.56
2022-11-08T07:35:33.920Z,94.36
2022-11-08T07:36:33.853Z,94.05
2022-11-08T07:37:33.772Z,93.90
2022-11-08T07:38:33.735Z,93.80
2022-11-08T07:39:33.653Z,93.60
2022-11-08T07:40:33.576Z,93.70
2022-11-08T07:41:54.525Z,93.70
2022-11-08T07:42:50.049Z,93.60
2022-11-08T07:43:33.396Z,93.80
2022-11-08T07:44:33.355Z,93.90
2022-11-08T07:45:33.270Z,93.70
2022-11-08T07:46:33.212Z,93.60
2022-11-08T07:47:33.161Z,93.70
2022-11-08T07:48:33.079Z,93.80
2022-11-08T07:49:33.022Z,93.90
2022-11-08T07:50:32.961Z,93.80
2022-11-08T07:51:32.888Z,93.80
2022-11-08T07:52:32.834Z,93.39
2022-11-08T07:53:32.783Z,93.08
2022-11-08T07:54:32.700Z,92.98
2022-11-08T07:55:32.639Z,92.88
2022-11-08T07:56:33.544Z,93.19
2022-11-08T07:57:32.517Z,93.29
2022-11-08T07:58:32.436Z,93.29
2022-11-08T07:59:32.401Z,93.29
2022-11-08T08:00:32.307Z,93.25
2022-11-08T08:01:32.351Z,93.25
2022-11-08T08:02:32.285Z,93.25
2022-11-08T08:03:33.182Z,93.04
2022-11-08T08:04:32.073Z,92.63
2022-11-08T08:05:32.031Z,92.43
2022-11-08T08:06:31.912Z,91.97
2022-11-08T08:07:31.853Z,91.67
2022-11-08T08:08:31.889Z,91.56
2022-11-08T08:09:31.726Z,91.05
2022-11-08T08:10:31.724Z,91.01
2022-11-08T08:11:33.765Z,90.91
2022-11-08T08:12:31.533Z,90.30
2022-11-08T08:13:31.488Z,90.60
2022-11-08T08:14:31.436Z,90.39
2022-11-08T08:15:31.341Z,89.53
2022-11-08T08:16:31.306Z,89.23
2022-11-08T08:19:10.122Z,89.23
2022-11-08T08:20:11.028Z,89.18
2022-11-08T08:21:10.999Z,89.29
2022-11-08T08:22:10.906Z,88.57
2022-11-08T08:23:10.827Z,88.26
2022-11-08T08:24:10.789Z,88.26
2022-11-08T08:25:10.733Z,88.17
2022-11-08T08:26:10.666Z,88.37
2022-11-08T08:27:10.587Z,88.47
2022-11-08T08:28:10.516Z,88.12
2022-11-08T08:29:10.458Z,88.02
2022-11-08T08:30:10.407Z,87.47
2022-11-08T08:31:10.307Z,87.06
2022-11-08T08:32:10.250Z,86.76
2022-11-08T08:34:10.136Z,85.79
2022-11-08T08:35:10.079Z,85.35
2022-11-08T08:37:48.917Z,83.78
2022-11-08T08:38:51.066Z,83.47
2022-11-08T08:39:49.769Z,83.26
2022-11-08T08:40:49.767Z,82.96
2022-11-08T08:41:49.673Z,82.41
2022-11-08T08:42:49.583Z,83.33
2022-11-08T08:43:49.509Z,82.61
2022-11-08T08:44:49.469Z,82.31
2022-11-08T08:45:49.421Z,82.21
2022-11-08T08:46:49.790Z,81.35
2022-11-08T08:47:49.288Z,80.84
2022-11-08T08:48:49.207Z,80.43
2022-11-08T08:49:49.147Z,80.54
2022-11-08T08:50:49.088Z,80.29
2022-11-08T08:51:51.109Z,79.89
2022-11-08T08:52:49.065Z,80.13
2022-11-08T08:54:09.875Z,79.82
2022-11-08T08:54:48.835Z,80.13
2022-11-08T08:55:48.753Z,80.23
2022-11-08T08:56:48.708Z,79.93
2022-11-08T08:57:48.634Z,80.09
2022-11-08T09:01:39.369Z,79.64
2022-11-08T09:01:44.317Z,78.59
2022-11-08T09:02:44.256Z,78.49
2022-11-08T09:03:44.213Z,78.28
2022-11-08T09:04:44.138Z,77.57
2022-11-08T09:05:44.100Z,77.26
2022-11-08T09:06:44.413Z,76.92
2022-11-08T09:07:43.923Z,77.33
2022-11-08T09:08:43.846Z,76.92
2022-11-08T09:09:43.804Z,76.79
2022-11-08T09:10:43.746Z,76.59
2022-11-08T09:11:43.688Z,76.28
2022-11-08T09:12:43.638Z,76.04
2022-11-08T09:13:43.536Z,75.84
2022-11-08T09:14:43.482Z,76.34
2022-11-08T09:15:43.423Z,76.14
2022-11-08T09:16:43.365Z,75.33
2022-11-08T09:17:43.293Z,75.12
2022-11-08T09:18:43.757Z,74.82
2022-11-08T09:19:43.155Z,74.31
2022-11-08T09:20:43.154Z,75.19
2022-11-08T09:21:43.111Z,74.28
2022-11-08T09:22:43.008Z,73.77
2022-11-08T09:23:42.925Z,73.77
2022-11-08T09:24:42.856Z,73.46
2022-11-08T09:25:42.776Z,73.74
2022-11-08T09:26:42.721Z,73.94
2022-11-08T09:27:42.654Z,73.53
2022-11-08T09:28:42.602Z,72.92
2022-11-08T09:29:42.550Z,72.78
2022-11-08T09:31:03.446Z,72.17
2022-11-08T09:31:42.410Z,72.28
2022-11-08T09:33:42.303Z,71.64
2022-11-08T09:34:42.272Z,72.11
2022-11-08T09:35:42.172Z,71.09
2022-11-08T09:36:42.118Z,71.06
2022-11-08T09:37:45.621Z,69.84
2022-11-08T09:38:41.982Z,69.20
2022-11-08T09:39:41.894Z,68.49
2022-11-08T09:40:41.848Z,68.06
2022-11-08T09:41:41.761Z,67.14
2022-11-08T09:42:41.727Z,67.65
2022-11-08T09:43:43.396Z,67.42
2022-11-08T09:44:41.611Z,67.01
2022-11-08T09:45:41.508Z,66.71
2022-11-08T09:46:41.444Z,66.71
2022-11-08T09:47:41.374Z,66.78
2022-11-08T09:49:02.320Z,65.50
2022-11-08T09:49:41.270Z,66.41
2022-11-08T09:50:41.196Z,66.41
2022-11-08T09:51:41.151Z,66.00
2022-11-08T09:52:41.069Z,65.29
2022-11-08T09:53:41.007Z,65.56
2022-11-08T09:54:40.976Z,65.39
2022-11-08T09:55:40.882Z,65.77
2022-11-08T09:56:40.851Z,64.86
2022-11-08T09:57:40.753Z,65.70
2022-11-08T09:58:40.698Z,65.36
2022-11-08T09:59:40.640Z,65.36
2022-11-08T10:00:40.617Z,65.67
2022-11-08T10:01:40.555Z,65.47
2022-11-08T10:02:40.451Z,64.86
2022-11-08T10:03:40.382Z,64.65
2022-11-08T10:04:40.330Z,64.96
2022-11-08T10:05:40.243Z,62.93
2022-11-08T10:06:40.263Z,63.13
2022-11-08T10:07:40.120Z,63.64
2022-11-08T10:08:40.052Z,62.93
2022-11-08T10:09:40.022Z,64.35
2022-11-08T10:10:39.925Z,64.35
2022-11-08T10:11:39.861Z,63.51
2022-11-08T10:14:18.688Z,63.21
2022-11-08T10:15:20.170Z,61.99
2022-11-08T10:16:19.557Z,61.90
2022-11-08T10:17:19.506Z,62.19
2022-11-08T10:18:19.439Z,62.90
2022-11-08T10:19:21.174Z,62.33
2022-11-08T10:20:19.441Z,62.63
2022-11-08T10:21:19.288Z,62.53
2022-11-08T10:22:19.604Z,61.72
2022-11-08T10:23:19.485Z,62.33
2022-11-08T10:25:28.306Z,62.53
2022-11-08T10:26:29.222Z,63.04
2022-11-08T10:27:29.182Z,62.73
2022-11-08T10:28:51.199Z,62.63
2022-11-08T10:29:31.978Z,62.33
2022-11-08T10:30:35.717Z,63.24
2022-11-08T10:34:26.414Z,62.53
2022-11-08T10:34:31.356Z,61.49
2022-11-08T10:35:32.208Z,61.59
2022-11-08T10:36:31.236Z,61.49
2022-11-08T10:37:31.192Z,61.29
2022-11-08T10:38:31.123Z,61.49
2022-11-08T10:39:31.062Z,61.69
2022-11-08T10:40:30.991Z,61.69
2022-11-08T10:41:30.945Z,61.59
2022-11-08T10:42:30.871Z,60.88
2022-11-08T10:43:30.785Z,61.19
2022-11-08T10:44:30.740Z,60.68
2022-11-08T10:45:30.674Z,61.19
2022-11-08T10:46:30.603Z,61.72
2022-11-08T10:47:31.214Z,61.82
2022-11-08T10:48:30.473Z,61.62
2022-11-08T10:49:30.430Z,61.92
2022-11-08T10:50:30.355Z,61.32
2022-11-08T10:51:30.299Z,62.33
2022-11-08T10:52:30.222Z,61.92
2022-11-08T10:53:30.179Z,62.12
2022-11-08T10:54:30.704Z,62.53
2022-11-08T10:55:30.050Z,61.52
2022-11-08T10:56:32.967Z,61.62
2022-11-08T10:57:29.913Z,62.12
2022-11-08T10:58:29.871Z,61.92
2022-11-08T11:02:58.181Z,61.92
2022-11-08T11:03:59.096Z,62.53
2022-11-08T11:04:59.073Z,62.43
2022-11-08T11:05:58.982Z,62.12
2022-11-08T11:07:15.435Z,62.53
2022-11-08T11:08:16.775Z,62.43
2022-11-08T11:09:16.230Z,62.43
2022-11-08T11:10:16.170Z,62.15
2022-11-08T11:11:16.136Z,62.66
2022-11-08T11:12:16.056Z,62.86
2022-11-08T11:13:16.038Z,62.66
2022-11-08T11:14:19.472Z,62.66
2022-11-08T11:15:15.879Z,62.43
2022-11-08T11:16:15.796Z,61.21
2022-11-08T11:17:16.059Z,60.61
2022-11-08T11:18:16.059Z,61.62
2022-11-08T11:19:15.589Z,62.23
2022-11-08T11:20:15.612Z,61.41
2022-11-08T11:21:18.321Z,61.41
2022-11-08T11:22:38.477Z,62.12
2022-11-08T11:23:37.741Z,61.24
2022-11-08T11:24:20.858Z,61.24
2022-11-08T11:25:17.293Z,60.43
2022-11-08T11:26:16.532Z,60.84
2022-11-08T11:27:15.112Z,60.94
2022-11-08T11:28:15.397Z,61.14
2022-11-08T11:29:14.999Z,62.05
2022-11-08T11:30:14.925Z,61.55
2022-11-08T11:31:14.857Z,61.92
2022-11-08T11:32:14.797Z,61.21
2022-11-08T11:33:14.752Z,61.21
2022-11-08T11:34:14.682Z,60.00
2022-11-08T11:35:35.579Z,60.30
2022-11-08T11:36:14.553Z,60.30
2022-11-08T11:37:14.457Z,60.20
2022-11-08T11:38:14.608Z,60.71
2022-11-08T11:39:15.807Z,60.88
2022-11-08T11:40:14.303Z,59.36
2022-11-08T11:41:14.243Z,59.36
2022-11-08T11:42:39.092Z,59.84
2022-11-08T11:43:14.619Z,60.25
2022-11-08T11:44:14.035Z,59.34
2022-11-08T11:45:13.955Z,59.03
2022-11-08T11:46:13.898Z,59.03
2022-11-08T11:47:13.857Z,58.33
2022-11-08T11:48:13.768Z,58.02
2022-11-08T11:49:13.708Z,58.33
2022-11-08T11:50:13.638Z,57.92
2022-11-08T11:51:13.620Z,58.50
2022-11-08T11:52:13.519Z,58.91
2022-11-08T11:53:34.445Z,59.11
2022-11-08T11:54:13.399Z,57.18
2022-11-08T11:55:13.309Z,57.69
2022-11-08T11:56:13.275Z,57.16
2022-11-08T11:57:13.195Z,57.56
2022-11-08T11:58:13.154Z,57.56
2022-11-08T11:59:13.091Z,57.46
2022-11-08T12:00:13.028Z,57.46
2022-11-08T12:01:14.706Z,57.97
2022-11-08T12:02:12.928Z,56.56
2022-11-08T12:03:12.852Z,56.56
2022-11-08T12:04:12.757Z,56.76
2022-11-08T12:05:12.738Z,56.96
2022-11-08T12:06:13.301Z,56.45
2022-11-08T12:07:12.643Z,56.43
2022-11-08T12:08:12.524Z,56.02
2022-11-08T12:09:12.441Z,56.12
2022-11-08T12:10:12.442Z,56.25
2022-11-08T12:11:12.348Z,56.35
2022-11-08T12:12:12.263Z,56.45
2022-11-08T12:13:12.200Z,57.06
2022-11-08T12:14:12.129Z,56.23
2022-11-08T12:15:12.067Z,55.52
2022-11-08T12:16:12.006Z,55.72
2022-11-08T12:17:11.963Z,55.21
2022-11-08T12:18:12.045Z,55.32
2022-11-08T12:19:11.973Z,56.32
2022-11-08T12:20:11.772Z,55.72
2022-11-08T12:21:11.832Z,55.54
2022-11-08T12:22:11.633Z,56.15
2022-11-08T12:23:11.603Z,56.68
2022-11-08T12:24:11.496Z,56.68
2022-11-08T12:25:11.454Z,56.78
2022-11-08T12:26:11.398Z,56.27
2022-11-08T12:27:11.317Z,56.07
2022-11-08T12:28:11.256Z,56.18
2022-11-08T12:30:51.082Z,56.48
2022-11-08T12:31:51.003Z,56.07
2022-11-08T12:32:50.933Z,56.48
2022-11-08T12:33:55.291Z,56.38
2022-11-08T12:34:50.862Z,55.67
2022-11-08T12:35:50.760Z,55.57
2022-11-08T12:36:50.714Z,56.30
2022-11-08T12:37:50.653Z,56.00
2022-11-08T12:38:50.592Z,56.30
2022-11-08T12:39:50.515Z,57.01
2022-11-08T12:40:50.466Z,56.48
2022-11-08T12:41:50.392Z,55.98
2022-11-08T12:42:50.316Z,56.18
2022-11-08T12:43:50.270Z,56.18
2022-11-08T12:44:50.198Z,56.07
2022-11-08T12:45:50.141Z,56.18
2022-11-08T12:47:11.026Z,56.78
2022-11-08T12:47:50.029Z,55.98
2022-11-08T12:48:49.943Z,56.58
2022-11-08T12:49:49.889Z,56.48
2022-11-08T12:50:49.829Z,55.87
2022-11-08T12:51:49.762Z,55.87
2022-11-08T12:52:49.718Z,55.87
2022-11-08T12:53:50.495Z,56.48
2022-11-08T12:54:49.563Z,55.67
2022-11-08T12:55:49.492Z,55.16
2022-11-08T12:56:49.451Z,55.57
2022-11-08T12:57:49.398Z,56.38
2022-11-08T12:58:49.338Z,55.47
2022-11-08T12:59:49.265Z,55.87
2022-11-08T13:00:49.243Z,55.36
2022-11-08T13:01:49.124Z,54.96
2022-11-08T13:02:49.104Z,55.40
2022-11-08T13:03:49.011Z,55.29
2022-11-08T13:05:09.959Z,55.19
2022-11-08T13:05:48.916Z,55.49
2022-11-08T13:06:49.674Z,55.60
2022-11-08T13:07:49.603Z,55.80
2022-11-08T13:08:48.710Z,55.60
2022-11-08T13:09:51.174Z,55.29
2022-11-08T13:10:48.572Z,55.09
2022-11-08T13:11:48.508Z,54.99
2022-11-08T13:12:49.079Z,55.40
2022-11-08T13:13:48.420Z,54.58
2022-11-08T13:14:48.320Z,54.58
2022-11-08T13:15:48.243Z,54.18
2022-11-08T13:16:48.207Z,54.89
2022-11-08T13:17:48.116Z,54.49
2022-11-08T13:18:48.055Z,54.91
2022-11-08T13:19:47.990Z,54.91
2022-11-08T13:20:47.950Z,56.02
2022-11-08T13:21:47.862Z,55.11
2022-11-08T13:22:47.831Z,54.82